createdAt,value
2022-08-03T00:01:29.315Z,96020.94
2022-08-03T00:03:56.798Z,96035.53
2022-08-03T00:06:24.253Z,96009.94
2022-08-03T00:08:53.094Z,96019.84
2022-08-03T00:11:20.636Z,96026.47
2022-08-03T00:13:48.644Z,96022.53
2022-08-03T00:16:16.247Z,96024.59
2022-08-03T00:18:44.063Z,96027.03
2022-08-03T00:21:11.523Z,96023.72
2022-08-03T00:23:51.437Z,96016.19
2022-08-03T00:26:21.947Z,96010.72
2022-08-03T00:28:49.636Z,96002.22
2022-08-03T00:31:23.067Z,95969.25
2022-08-03T00:34:05.185Z,96009.41
2022-08-03T00:36:33.636Z,96013.03
2022-08-03T00:39:01.124Z,96014.13
2022-08-03T00:41:29.949Z,96007.25
2022-08-03T00:43:57.421Z,96000.09
2022-08-03T00:46:24.870Z,95979.91
2022-08-03T00:48:52.915Z,95996.09
2022-08-03T00:51:21.698Z,95987.41
2022-08-03T00:53:49.787Z,95996.25
2022-08-03T00:56:18.172Z,96000.22
2022-08-03T00:58:48.010Z,96003.53
2022-08-03T01:01:16.049Z,95993.00
2022-08-03T01:03:45.204Z,95998.97
2022-08-03T01:06:18.847Z,95992.44
2022-08-03T01:08:53.311Z,95994.00
2022-08-03T01:11:32.865Z,95988.47
2022-08-03T01:14:18.373Z,95996.91
2022-08-03T01:16:54.565Z,95996.50
2022-08-03T01:19:45.021Z,96000.06
2022-08-03T01:22:31.197Z,95986.16
2022-08-03T01:25:06.914Z,95993.25
2022-08-03T01:27:52.373Z,95999.72
2022-08-03T01:30:21.877Z,95998.16
2022-08-03T01:33:01.353Z,95992.44
2022-08-03T01:35:35.479Z,96003.22
2022-08-03T01:38:10.846Z,95997.94
2022-08-03T01:40:41.079Z,95987.88
2022-08-03T01:43:11.959Z,95982.66
2022-08-03T01:45:41.176Z,95986.84
2022-08-03T01:48:10.340Z,95979.00
2022-08-03T01:50:38.364Z,95983.19
2022-08-03T01:53:07.786Z,95981.16
2022-08-03T01:55:37.166Z,95981.19
2022-08-03T01:58:07.814Z,95973.81
2022-08-03T02:00:37.851Z,95961.88
2022-08-03T02:03:09.499Z,95970.44
2022-08-03T02:05:39.568Z,95982.84
2022-08-03T02:08:09.893Z,95974.72
2022-08-03T02:10:38.655Z,95978.09
2022-08-03T02:13:08.264Z,95977.34
2022-08-03T02:15:37.976Z,95977.38
2022-08-03T02:18:08.752Z,95970.84
2022-08-03T02:20:38.826Z,95977.94
2022-08-03T02:23:07.172Z,95973.78
2022-08-03T02:25:37.031Z,95969.88
2022-08-03T02:28:09.745Z,95974.75
2022-08-03T02:30:39.376Z,95974.78
2022-08-03T02:33:13.103Z,95967.88
2022-08-03T02:35:41.448Z,95973.63
2022-08-03T02:38:11.354Z,95965.47
2022-08-03T02:40:41.620Z,95959.19
2022-08-03T02:43:12.836Z,95963.41
2022-08-03T02:45:49.050Z,95963.34
2022-08-03T02:48:22.570Z,95953.56
2022-08-03T02:50:52.564Z,95961.47
2022-08-03T02:53:21.144Z,95950.81
2022-08-03T02:55:50.968Z,95957.47
2022-08-03T02:58:21.115Z,95955.44
2022-08-03T03:00:49.865Z,95959.03
2022-08-03T03:03:19.826Z,95959.03
2022-08-03T03:05:52.044Z,95951.97
2022-08-03T03:08:25.892Z,95956.16
2022-08-03T03:10:57.121Z,95958.47
2022-08-03T03:13:26.077Z,95954.59
2022-08-03T03:15:55.362Z,95959.25
2022-08-03T03:18:26.057Z,95962.63
2022-08-03T03:20:54.891Z,95965.09
2022-08-03T03:23:26.403Z,95962.22
2022-08-03T03:25:55.905Z,95960.38
2022-08-03T03:28:24.367Z,95958.59
2022-08-03T03:30:53.467Z,95953.34
2022-08-03T03:33:21.919Z,95953.63
2022-08-03T03:35:51.695Z,95962.59
2022-08-03T03:38:19.826Z,95961.31
2022-08-03T03:40:47.821Z,95968.97
2022-08-03T03:43:15.357Z,95960.56
2022-08-03T03:45:43.152Z,95960.59
2022-08-03T03:48:10.937Z,95968.75
2022-08-03T03:50:40.762Z,95960.59
2022-08-03T03:53:12.524Z,95962.66
2022-08-03T03:55:59.674Z,95958.19
2022-08-03T03:58:28.636Z,95961.31
2022-08-03T04:00:56.126Z,95964.72
2022-08-03T04:03:23.653Z,95961.53
2022-08-03T04:06:08.738Z,95959.75
2022-08-03T04:08:55.417Z,95962.59
2022-08-03T04:11:30.224Z,95964.91
2022-08-03T04:14:04.493Z,95947.88
2022-08-03T04:16:35.643Z,95961.94
2022-08-03T04:19:06.281Z,95970.25
2022-08-03T04:21:36.370Z,95966.53
2022-08-03T04:24:09.388Z,95968.06
2022-08-03T04:26:40.836Z,95972.84
2022-08-03T04:29:10.406Z,95973.16
2022-08-03T04:31:39.921Z,95969.41
2022-08-03T04:34:08.527Z,95969.84
2022-08-03T04:36:40.856Z,95967.97
2022-08-03T04:39:14.458Z,95966.13
2022-08-03T04:42:02.184Z,95976.34
2022-08-03T04:44:35.803Z,95977.91
2022-08-03T04:47:03.476Z,95966.50
2022-08-03T04:49:31.841Z,95971.41
2022-08-03T04:51:59.561Z,95972.72
2022-08-03T04:54:28.355Z,95971.25
2022-08-03T04:56:55.804Z,95971.63
2022-08-03T04:59:26.592Z,95962.19
2022-08-03T05:01:54.116Z,95964.56
2022-08-03T05:04:22.967Z,95967.56
2022-08-03T05:06:54.864Z,95977.81
2022-08-03T05:09:50.005Z,95975.28
2022-08-03T05:12:12.084Z,95979.59
2022-08-03T05:14:39.655Z,95984.78
2022-08-03T05:17:07.333Z,95982.22
2022-08-03T05:19:34.856Z,95972.50
2022-08-03T05:22:03.158Z,95985.34
2022-08-03T05:24:30.600Z,95982.00
2022-08-03T05:26:58.162Z,95981.84
2022-08-03T05:29:26.945Z,95981.22
2022-08-03T05:31:54.440Z,95989.75
2022-08-03T05:34:21.879Z,95982.47
2022-08-03T05:36:49.347Z,95986.94
2022-08-03T05:39:16.799Z,95986.25
2022-08-03T05:41:44.246Z,95972.19
2022-08-03T05:44:11.707Z,95981.63
2022-08-03T05:46:40.491Z,95980.97
2022-08-03T05:49:08.097Z,95984.69
2022-08-03T05:51:37.032Z,95984.38
2022-08-03T05:54:04.636Z,95986.59
2022-08-03T05:56:32.271Z,95983.25
2022-08-03T05:59:07.353Z,95983.34
2022-08-03T06:01:48.726Z,95972.94
2022-08-03T06:04:16.247Z,95986.53
2022-08-03T06:06:44.103Z,95983.25
2022-08-03T06:09:11.707Z,95981.06
2022-08-03T06:11:39.308Z,95991.56
2022-08-03T06:14:07.180Z,95985.47
2022-08-03T06:16:35.368Z,95985.22
2022-08-03T06:19:04.241Z,95985.09
2022-08-03T06:21:31.874Z,95977.13
2022-08-03T06:23:59.311Z,95990.94
2022-08-03T06:26:30.002Z,95994.06
2022-08-03T06:28:57.479Z,95990.63
2022-08-03T06:31:33.288Z,95993.09
2022-08-03T06:34:34.351Z,95993.34
2022-08-03T06:36:52.421Z,95984.47
2022-08-03T06:39:20.418Z,95994.06
2022-08-03T06:41:47.873Z,95995.19
2022-08-03T06:44:15.362Z,95989.00
2022-08-03T06:46:43.256Z,95999.13
2022-08-03T06:49:12.176Z,95993.97
2022-08-03T06:52:05.249Z,95993.81
2022-08-03T06:54:27.051Z,96001.38
2022-08-03T06:56:55.223Z,95999.16
2022-08-03T07:00:09.141Z,95999.28
2022-08-03T07:02:11.455Z,95987.38
2022-08-03T07:04:40.376Z,95985.38
2022-08-03T07:07:07.818Z,95995.78
2022-08-03T07:09:35.264Z,95989.09
2022-08-03T07:12:04.201Z,95994.78
2022-08-03T07:14:31.639Z,95998.00
2022-08-03T07:16:59.095Z,95998.41
2022-08-03T07:19:26.798Z,96003.28
2022-08-03T07:21:56.218Z,96004.31
2022-08-03T07:24:29.613Z,96004.03
2022-08-03T07:26:57.089Z,96002.47
2022-08-03T07:29:24.949Z,96008.41
2022-08-03T07:31:52.377Z,96003.84
2022-08-03T07:34:19.893Z,96009.53
2022-08-03T07:36:47.650Z,96012.13
2022-08-03T07:39:17.997Z,96006.06
2022-08-03T07:41:45.832Z,96010.00
2022-08-03T07:44:13.324Z,96008.16
2022-08-03T07:46:40.779Z,96008.66
2022-08-03T07:49:09.670Z,96005.66
2022-08-03T07:51:37.577Z,96005.59
2022-08-03T07:54:05.181Z,96004.25
2022-08-03T07:56:34.327Z,96007.69
2022-08-03T07:59:02.830Z,96005.00
2022-08-03T08:01:32.732Z,96012.91
2022-08-03T08:04:00.331Z,96008.31
2022-08-03T08:06:27.784Z,95997.34
2022-08-03T08:08:59.445Z,95997.75
2022-08-03T08:11:26.920Z,95991.47
2022-08-03T08:13:55.731Z,95997.53
2022-08-03T08:16:23.228Z,95995.06
2022-08-03T08:18:50.720Z,95986.00
2022-08-03T08:21:18.232Z,95996.94
2022-08-03T08:23:49.474Z,95996.84
2022-08-03T08:26:24.540Z,95997.78
2022-08-03T08:28:52.709Z,95988.59
2022-08-03T08:31:21.618Z,95993.00
2022-08-03T08:34:03.721Z,95990.56
2022-08-03T08:36:31.858Z,95996.34
2022-08-03T08:38:59.396Z,95995.00
2022-08-03T08:41:32.177Z,95985.13
2022-08-03T08:44:00.486Z,95986.63
2022-08-03T08:46:33.188Z,95986.31
2022-08-03T08:49:04.503Z,95987.81
2022-08-03T08:51:50.931Z,95992.47
2022-08-03T08:54:26.096Z,95996.53
2022-08-03T08:56:57.055Z,95994.69
2022-08-03T08:59:25.799Z,95994.88
2022-08-03T09:01:58.047Z,95991.59
2022-08-03T09:04:26.028Z,95991.56
2022-08-03T09:07:17.716Z,95991.84
2022-08-03T09:10:11.672Z,95991.53
2022-08-03T09:12:41.625Z,95992.38
2022-08-03T09:15:22.126Z,95989.66
2022-08-03T09:17:52.544Z,95993.94
2022-08-03T09:20:21.511Z,95988.91
2022-08-03T09:22:59.871Z,95992.63
2022-08-03T09:25:29.511Z,95994.34
2022-08-03T09:28:05.782Z,95995.59
2022-08-03T09:30:35.091Z,95993.22
2022-08-03T09:33:05.624Z,95996.09
2022-08-03T09:35:53.028Z,96004.78
2022-08-03T09:38:23.963Z,95992.03
2022-08-03T09:40:53.797Z,95986.69
2022-08-03T09:43:25.854Z,95987.25
2022-08-03T09:46:03.849Z,95990.19
2022-08-03T09:48:34.750Z,95991.59
2022-08-03T09:51:14.370Z,95984.22
2022-08-03T09:53:58.758Z,95977.59
2022-08-03T09:56:39.574Z,95985.16
2022-08-03T09:59:07.146Z,95986.22
2022-08-03T10:01:35.137Z,95985.81
2022-08-03T10:04:05.250Z,95975.88
2022-08-03T10:06:33.123Z,95979.16
2022-08-03T10:09:08.714Z,95985.47
2022-08-03T10:11:41.158Z,95969.72
2022-08-03T10:14:11.174Z,95973.31
2022-08-03T10:16:40.534Z,95977.00
2022-08-03T10:19:10.541Z,95975.31
2022-08-03T10:21:40.065Z,95977.47
2022-08-03T10:24:09.467Z,95969.63
2022-08-03T10:26:39.880Z,95974.75
2022-08-03T10:29:24.492Z,95957.56
2022-08-03T10:31:57.772Z,95963.50
2022-08-03T10:34:30.038Z,95957.69
2022-08-03T10:37:00.094Z,95961.09
2022-08-03T10:39:30.133Z,95957.72
2022-08-03T10:41:58.841Z,95957.56
2022-08-03T10:44:34.109Z,95949.44
2022-08-03T10:47:01.972Z,95950.47
2022-08-03T10:49:34.573Z,95943.19
2022-08-03T10:52:13.132Z,95948.03
2022-08-03T10:55:10.742Z,95944.53
2022-08-03T10:57:56.172Z,95945.81
2022-08-03T11:00:28.077Z,95930.28
2022-08-03T11:03:16.559Z,95929.00
2022-08-03T11:05:46.568Z,95929.34
2022-08-03T11:08:26.457Z,95926.72
2022-08-03T11:10:56.036Z,95932.31
2022-08-03T11:13:26.121Z,95929.69
2022-08-03T11:16:01.665Z,95924.72
2022-08-03T11:18:30.894Z,95934.22
2022-08-03T11:21:00.967Z,95921.41
2022-08-03T11:24:04.913Z,95920.47
2022-08-03T11:26:31.596Z,95925.56
2022-08-03T11:29:31.496Z,95923.56
2022-08-03T11:31:59.052Z,95920.97
2022-08-03T11:34:27.063Z,95916.00
2022-08-03T11:37:21.772Z,95932.59
2022-08-03T11:39:52.915Z,95924.22
2022-08-03T11:42:41.573Z,95924.28
2022-08-03T11:45:13.253Z,95924.69
2022-08-03T11:47:51.022Z,95924.41
2022-08-03T11:50:20.031Z,95915.59
2022-08-03T11:52:48.712Z,95922.69
2022-08-03T11:55:20.221Z,95918.69
2022-08-03T11:59:01.582Z,95917.59
2022-08-03T12:00:37.024Z,95918.88
2022-08-03T12:03:07.362Z,95920.47
2022-08-03T12:05:39.958Z,95918.97
2022-08-03T12:08:09.825Z,95913.50
2022-08-03T12:10:38.852Z,95907.47
2022-08-03T12:14:43.925Z,95912.31
2022-08-03T12:15:59.203Z,95908.81
2022-08-03T12:18:26.794Z,95912.66
2022-08-03T12:21:04.217Z,95911.09
2022-08-03T12:23:35.988Z,95908.94
2022-08-03T12:26:06.927Z,95914.69
2022-08-03T12:28:37.905Z,95908.59
2022-08-03T12:31:09.174Z,95909.72
2022-08-03T12:33:59.457Z,95905.88
2022-08-03T12:36:29.566Z,95898.78
2022-08-03T12:38:59.290Z,95903.88
2022-08-03T12:41:31.803Z,95883.59
2022-08-03T12:43:59.471Z,95890.09
2022-08-03T12:46:33.678Z,95904.06
2022-08-03T12:49:09.654Z,95901.72
2022-08-03T12:51:39.271Z,95899.22
2022-08-03T12:54:07.220Z,95900.75
2022-08-03T12:56:34.696Z,95895.06
2022-08-03T12:59:02.265Z,95892.66
2022-08-03T13:01:38.712Z,95901.47
2022-08-03T13:04:33.662Z,95899.84
2022-08-03T13:07:03.432Z,95888.63
2022-08-03T13:09:33.048Z,95901.03
2022-08-03T13:12:11.447Z,95897.69
2022-08-03T13:14:39.200Z,95889.25
2022-08-03T13:17:08.270Z,95889.56
2022-08-03T13:19:36.611Z,95889.81
2022-08-03T13:22:12.105Z,95891.31
2022-08-03T13:24:39.657Z,95888.38
2022-08-03T13:28:01.404Z,95888.84
2022-08-03T13:29:55.216Z,95886.91
2022-08-03T13:32:24.245Z,95878.72
2022-08-03T13:34:51.917Z,95874.16
2022-08-03T13:37:19.374Z,95872.22
2022-08-03T13:39:58.150Z,95879.97
2022-08-03T13:42:28.295Z,95872.59
2022-08-03T13:44:55.853Z,95877.66
2022-08-03T13:47:24.727Z,95866.44
2022-08-03T13:49:54.210Z,95869.53
2022-08-03T13:52:29.784Z,95866.84
2022-08-03T13:54:57.254Z,95862.59
2022-08-03T13:58:02.872Z,95861.13
2022-08-03T14:00:26.137Z,95857.28
2022-08-03T14:03:03.793Z,95861.13
2022-08-03T14:05:32.571Z,95862.31
2022-08-03T14:08:04.161Z,95852.13
2022-08-03T14:10:32.543Z,95848.84
2022-08-03T14:13:00.704Z,95850.81
2022-08-03T14:15:28.909Z,95827.19
2022-08-03T14:17:58.680Z,95832.28
2022-08-03T14:20:36.741Z,95840.75
2022-08-03T14:23:06.639Z,95836.47
2022-08-03T14:25:43.439Z,95831.38
2022-08-03T14:28:18.732Z,95809.03
2022-08-03T14:30:46.471Z,95827.06
2022-08-03T14:33:15.332Z,95815.66
2022-08-03T14:35:42.883Z,95825.72
2022-08-03T14:38:10.332Z,95831.03
2022-08-03T14:40:37.779Z,95825.28
2022-08-03T14:43:05.613Z,95821.19
2022-08-03T14:45:34.152Z,95819.97
2022-08-03T14:50:28.573Z,95819.97
2022-08-03T14:50:51.939Z,95812.47
2022-08-03T14:53:19.766Z,95810.06
2022-08-03T14:55:50.784Z,95814.22
2022-08-03T14:58:20.826Z,95813.53
2022-08-03T15:00:48.879Z,95815.00
2022-08-03T15:03:17.001Z,95811.38
2022-08-03T15:05:45.125Z,95805.06
2022-08-03T15:08:13.920Z,95807.53
2022-08-03T15:10:44.936Z,95802.13
2022-08-03T15:13:13.301Z,95799.94
2022-08-03T15:15:41.256Z,95794.84
2022-08-03T15:18:08.966Z,95795.22
2022-08-03T15:20:44.408Z,95777.41
2022-08-03T15:23:15.081Z,95799.28
2022-08-03T15:26:28.121Z,95787.72
2022-08-03T15:28:30.380Z,95782.41
2022-08-03T15:30:57.990Z,95785.00
2022-08-03T15:33:25.470Z,95780.03
2022-08-03T15:35:52.949Z,95780.72
2022-08-03T15:38:22.878Z,95777.25
2022-08-03T15:40:54.325Z,95768.38
2022-08-03T15:43:22.430Z,95770.22
2022-08-03T15:45:54.583Z,95772.34
2022-08-03T15:48:37.339Z,95772.34
2022-08-03T15:51:06.107Z,95759.97
2022-08-03T15:53:35.643Z,95765.72
2022-08-03T15:56:09.697Z,95759.25
2022-08-03T15:59:04.043Z,95770.38
2022-08-03T16:01:27.128Z,95764.69
2022-08-03T16:03:54.594Z,95762.84
2022-08-03T16:06:29.772Z,95763.28
2022-08-03T16:09:05.667Z,95755.06
2022-08-03T16:11:52.039Z,95754.69
2022-08-03T16:14:32.281Z,95754.38
2022-08-03T16:17:03.211Z,95751.28
2022-08-03T16:19:30.657Z,95757.09
2022-08-03T16:21:58.098Z,95755.09
2022-08-03T16:24:27.734Z,95754.69
2022-08-03T16:26:55.745Z,95743.34
2022-08-03T16:29:23.800Z,95751.59
2022-08-03T16:31:52.298Z,95753.25
2022-08-03T16:34:20.968Z,95737.03
2022-08-03T16:36:48.497Z,95752.81
2022-08-03T16:39:16.095Z,95744.38
2022-08-03T16:41:54.436Z,95750.84
2022-08-03T16:44:30.302Z,95745.47
2022-08-03T16:46:57.868Z,95755.94
2022-08-03T16:49:54.908Z,95751.25
2022-08-03T16:52:13.171Z,95754.84
2022-08-03T16:54:40.919Z,95742.44
2022-08-03T16:57:09.786Z,95747.69
2022-08-03T16:59:39.376Z,95757.88
2022-08-03T17:02:10.549Z,95765.94
2022-08-03T17:04:40.355Z,95753.25
2022-08-03T17:07:09.150Z,95755.16
2022-08-03T17:09:38.552Z,95750.53
2022-08-03T17:12:07.397Z,95749.78
2022-08-03T17:14:40.249Z,95755.53
2022-08-03T17:17:16.346Z,95750.81
2022-08-03T17:19:47.466Z,95753.56
2022-08-03T17:22:27.151Z,95751.59
2022-08-03T17:24:58.628Z,95752.09
2022-08-03T17:28:51.370Z,95750.91
2022-08-03T17:30:18.907Z,95752.09
2022-08-03T17:32:57.187Z,95759.34
2022-08-03T17:35:36.471Z,95753.16
2022-08-03T17:38:12.130Z,95743.88
2022-08-03T17:40:48.265Z,95753.16
2022-08-03T17:44:13.938Z,95748.88
2022-08-03T17:46:10.801Z,95753.09
2022-08-03T17:48:42.660Z,95756.59
2022-08-03T17:51:17.237Z,95741.19
2022-08-03T17:53:50.474Z,95751.50
2022-08-03T17:56:44.395Z,95751.59
2022-08-03T18:02:47.486Z,95752.97
2022-08-03T18:05:18.434Z,95757.16
2022-08-03T18:07:59.219Z,95768.56
2022-08-03T18:10:34.748Z,95752.16
2022-08-03T18:13:10.531Z,95761.03
2022-08-03T18:15:43.458Z,95756.69
2022-08-03T18:18:16.682Z,95757.44
2022-08-03T18:20:57.758Z,95760.81
2022-08-03T18:23:36.662Z,95758.72
2022-08-03T18:26:07.644Z,95754.16
2022-08-03T18:28:40.591Z,95763.25
2022-08-03T18:31:11.717Z,95759.38
2022-08-03T18:34:17.260Z,95757.03
2022-08-03T18:36:31.100Z,95761.25
2022-08-03T18:39:02.429Z,95762.66
2022-08-03T18:41:32.555Z,95765.16
2022-08-03T18:44:09.098Z,95745.03
2022-08-03T18:47:07.435Z,95752.84
2022-08-03T18:49:53.945Z,95763.84
2022-08-03T18:52:27.678Z,95768.44
2022-08-03T18:55:13.993Z,95767.91
2022-08-03T18:57:53.078Z,95764.19
2022-08-03T19:00:24.527Z,95767.47
2022-08-03T19:03:12.372Z,95774.84
2022-08-03T19:08:48.736Z,95774.03
2022-08-03T19:11:28.013Z,95772.53
2022-08-03T19:13:57.713Z,95770.16
2022-08-03T19:16:32.585Z,95783.13
2022-08-03T19:19:02.385Z,95772.03
2022-08-03T19:21:34.392Z,95792.25
2022-08-03T19:24:05.561Z,95779.16
2022-08-03T19:26:38.353Z,95781.63
2022-08-03T19:29:14.732Z,95795.22
2022-08-03T19:31:59.039Z,95785.81
2022-08-03T19:34:29.622Z,95779.75
2022-08-03T19:36:59.244Z,95796.25
2022-08-03T19:39:27.431Z,95792.81
2022-08-03T19:42:08.211Z,95791.59
2022-08-03T19:44:45.142Z,95784.38
2022-08-03T19:47:19.935Z,95789.03
2022-08-03T19:50:05.379Z,95786.84
2022-08-03T19:52:42.217Z,95793.75
2022-08-03T19:55:12.408Z,95786.78
2022-08-03T19:57:43.229Z,95798.59
2022-08-03T20:00:12.657Z,95792.41
2022-08-03T20:02:42.150Z,95794.34
2022-08-03T20:05:11.941Z,95798.09
2022-08-03T20:07:47.982Z,95796.44
2022-08-03T20:10:17.223Z,95788.00
2022-08-03T20:12:45.175Z,95794.38
2022-08-03T20:15:13.170Z,95783.66
2022-08-03T20:17:56.126Z,95795.03
2022-08-03T20:20:27.670Z,95793.53
2022-08-03T20:22:58.475Z,95790.19
2022-08-03T20:25:38.439Z,95790.00
2022-08-03T20:28:13.562Z,95789.94
2022-08-03T20:30:44.184Z,95789.00
2022-08-03T20:33:12.417Z,95803.59
2022-08-03T20:35:49.227Z,95787.63
2022-08-03T20:38:19.382Z,95799.31
2022-08-03T20:40:47.929Z,95799.66
2022-08-03T20:43:15.414Z,95792.47
2022-08-03T20:46:01.044Z,95791.47
2022-08-03T20:48:31.607Z,95781.41
2022-08-03T20:50:59.348Z,95796.16
2022-08-03T20:53:57.002Z,95803.19
2022-08-03T20:56:16.478Z,95793.25
2022-08-03T20:58:50.657Z,95800.19
2022-08-03T21:01:27.661Z,95799.66
2022-08-03T21:04:06.964Z,95801.19
2022-08-03T21:06:41.051Z,95795.06
2022-08-03T21:09:19.979Z,95789.72
2022-08-03T21:11:50.594Z,95768.69
2022-08-03T21:13:01.363Z,95771.72
2022-08-03T21:13:04.378Z,95756.53
2022-08-03T21:14:21.096Z,95789.84
2022-08-03T21:16:51.456Z,95787.53
2022-08-03T21:19:21.226Z,95787.25
2022-08-03T21:21:50.201Z,95784.44
2022-08-03T21:24:22.708Z,95785.66
2022-08-03T21:26:54.502Z,95776.53
2022-08-03T21:29:22.270Z,95783.78
2022-08-03T21:31:50.419Z,95784.97
2022-08-03T21:34:18.439Z,95772.06
2022-08-03T21:36:46.103Z,95776.28
2022-08-03T21:39:13.897Z,95780.28
2022-08-03T21:41:42.905Z,95778.28
2022-08-03T21:44:10.505Z,95765.38
2022-08-03T21:46:40.115Z,95777.28
2022-08-03T21:50:06.954Z,95781.63
2022-08-03T21:51:59.062Z,95775.25
2022-08-03T21:54:34.826Z,95772.47
2022-08-03T21:57:06.814Z,95765.44
2022-08-03T21:59:37.842Z,95769.00
2022-08-03T22:02:07.386Z,95751.06
2022-08-03T22:04:55.308Z,95771.03
2022-08-03T22:07:24.511Z,95769.66
2022-08-03T22:09:53.046Z,95767.47
2022-08-03T22:12:24.886Z,95760.31
2022-08-03T22:15:01.204Z,95730.38
2022-08-03T22:17:55.060Z,95740.72
2022-08-03T22:20:19.325Z,95768.59
2022-08-03T22:22:55.675Z,95756.59
2022-08-03T22:25:28.598Z,95752.69
2022-08-03T22:27:58.661Z,95772.78
2022-08-03T22:30:26.372Z,95768.00
2022-08-03T22:32:56.018Z,95756.28
2022-08-03T22:35:25.581Z,95762.69
2022-08-03T22:37:54.906Z,95765.16
2022-08-03T22:40:22.768Z,95770.47
2022-08-03T22:42:52.353Z,95769.38
2022-08-03T22:46:06.227Z,95765.66
2022-08-03T22:48:09.449Z,95762.81
2022-08-03T22:50:36.970Z,95770.00
2022-08-03T22:53:04.612Z,95761.13
2022-08-03T22:55:32.315Z,95770.00
2022-08-03T22:57:59.786Z,95760.34
2022-08-03T23:00:28.583Z,95767.38
2022-08-03T23:02:58.959Z,95759.22
2022-08-03T23:06:00.771Z,95758.78
2022-08-03T23:08:19.740Z,95758.63
2022-08-03T23:10:48.447Z,95749.13
2022-08-03T23:13:17.937Z,95748.31
2022-08-03T23:15:52.097Z,95767.31
2022-08-03T23:18:21.731Z,95734.09
2022-08-03T23:20:51.170Z,95756.94
2022-08-03T23:23:20.640Z,95757.41
2022-08-03T23:25:50.252Z,95751.00
2022-08-03T23:28:18.173Z,95759.09
2022-08-03T23:30:47.537Z,95745.38
2022-08-03T23:33:15.895Z,95740.06
2022-08-03T23:36:29.114Z,95748.47
2022-08-03T23:38:45.866Z,95740.53
2022-08-03T23:41:14.304Z,95722.03
2022-08-03T23:43:50.737Z,95747.34
2022-08-03T23:46:22.480Z,95747.81
2022-08-03T23:48:50.860Z,95744.50
2022-08-03T23:51:24.407Z,95738.56
2022-08-03T23:54:00.045Z,95733.47
2022-08-03T23:56:37.919Z,95738.94
2022-08-03T23:59:12.333Z,95740.41
